sensor_id;sensor_type;location;lat;lon;timestamp;P1;durP1;ratioP1;P2;durP2;ratioP2
47519;SDS011;33252;48.122;11.538;2023-02-01T00:01:55;5.57;;;2.75;;
47519;SDS011;33252;48.122;11.538;2023-02-01T00:04:21;4.90;;;2.53;;
47519;SDS011;33252;48.122;11.538;2023-02-01T00:06:47;4.97;;;2.50;;
47519;SDS011;33252;48.122;11.538;2023-02-01T00:09:13;3.60;;;2.30;;
47519;SDS011;33252;48.122;11.538;2023-02-01T00:11:39;5.40;;;3.15;;
47519;SDS011;33252;48.122;11.538;2023-02-01T00:14:05;6.07;;;2.60;;
47519;SDS011;33252;48.122;11.538;2023-02-01T00:16:31;4.53;;;2.30;;
47519;SDS011;33252;48.122;11.538;2023-02-01T00:19:07;6.32;;;2.70;;
47519;SDS011;33252;48.122;11.538;2023-02-01T00:21:37;4.50;;;2.75;;
47519;SDS011;33252;48.122;11.538;2023-02-01T00:24:03;4.95;;;2.38;;
47519;SDS011;33252;48.122;11.538;2023-02-01T00:26:31;3.85;;;2.10;;
47519;SDS011;33252;48.122;11.538;2023-02-01T00:28:59;5.20;;;2.53;;
47519;SDS011;33252;48.122;11.538;2023-02-01T00:31:25;4.07;;;1.92;;
47519;SDS011;33252;48.122;11.538;2023-02-01T00:33:51;5.22;;;2.33;;
47519;SDS011;33252;48.122;11.538;2023-02-01T00:36:17;5.63;;;3.20;;
47519;SDS011;33252;48.122;11.538;2023-02-01T00:38:43;5.15;;;2.58;;
47519;SDS011;33252;48.122;11.538;2023-02-01T00:41:13;5.45;;;2.13;;
47519;SDS011;33252;48.122;11.538;2023-02-01T00:43:40;6.35;;;2.67;;
47519;SDS011;33252;48.122;11.538;2023-02-01T00:46:06;5.65;;;2.10;;
47519;SDS011;33252;48.122;11.538;2023-02-01T00:48:32;3.78;;;2.28;;
47519;SDS011;33252;48.122;11.538;2023-02-01T00:50:59;4.10;;;2.85;;
47519;SDS011;33252;48.122;11.538;2023-02-01T00:53:27;7.45;;;2.72;;
47519;SDS011;33252;48.122;11.538;2023-02-01T00:55:53;3.70;;;2.85;;
47519;SDS011;33252;48.122;11.538;2023-02-01T00:58:19;5.95;;;2.90;;
47519;SDS011;33252;48.122;11.538;2023-02-01T01:00:45;6.10;;;3.33;;
47519;SDS011;33252;48.122;11.538;2023-02-01T01:03:11;4.53;;;3.03;;
47519;SDS011;33252;48.122;11.538;2023-02-01T01:05:46;7.35;;;3.58;;
47519;SDS011;33252;48.122;11.538;2023-02-01T01:08:13;5.32;;;3.10;;
47519;SDS011;33252;48.122;11.538;2023-02-01T01:10:40;5.35;;;3.25;;
47519;SDS011;33252;48.122;11.538;2023-02-01T01:13:05;6.43;;;3.53;;
47519;SDS011;33252;48.122;11.538;2023-02-01T01:15:35;8.20;;;3.80;;
47519;SDS011;33252;48.122;11.538;2023-02-01T01:18:04;5.70;;;3.70;;
47519;SDS011;33252;48.122;11.538;2023-02-01T01:20:30;6.85;;;3.92;;
47519;SDS011;33252;48.122;11.538;2023-02-01T01:22:59;7.70;;;3.80;;
47519;SDS011;33252;48.122;11.538;2023-02-01T01:25:25;6.40;;;3.75;;
47519;SDS011;33252;48.122;11.538;2023-02-01T01:27:51;7.82;;;4.68;;
47519;SDS011;33252;48.122;11.538;2023-02-01T01:30:16;5.63;;;3.55;;
47519;SDS011;33252;48.122;11.538;2023-02-01T01:32:42;5.53;;;3.13;;
47519;SDS011;33252;48.122;11.538;2023-02-01T01:35:08;7.68;;;3.88;;
47519;SDS011;33252;48.122;11.538;2023-02-01T01:37:35;7.85;;;4.20;;
47519;SDS011;33252;48.122;11.538;2023-02-01T01:40:01;8.38;;;4.80;;
47519;SDS011;33252;48.122;11.538;2023-02-01T01:42:28;6.43;;;3.50;;
47519;SDS011;33252;48.122;11.538;2023-02-01T01:45:04;7.53;;;4.25;;
47519;SDS011;33252;48.122;11.538;2023-02-01T01:47:39;8.23;;;5.45;;
47519;SDS011;33252;48.122;11.538;2023-02-01T01:50:10;8.38;;;6.15;;
47519;SDS011;33252;48.122;11.538;2023-02-01T01:52:41;9.55;;;4.35;;
47519;SDS011;33252;48.122;11.538;2023-02-01T01:55:13;8.05;;;4.95;;
47519;SDS011;33252;48.122;11.538;2023-02-01T01:57:43;8.90;;;5.60;;
47519;SDS011;33252;48.122;11.538;2023-02-01T02:00:17;7.75;;;4.90;;
47519;SDS011;33252;48.122;11.538;2023-02-01T02:02:46;11.15;;;5.60;;
47519;SDS011;33252;48.122;11.538;2023-02-01T02:05:14;11.88;;;6.32;;
47519;SDS011;33252;48.122;11.538;2023-02-01T02:07:42;10.05;;;5.10;;
47519;SDS011;33252;48.122;11.538;2023-02-01T02:10:11;10.77;;;5.93;;
47519;SDS011;33252;48.122;11.538;2023-02-01T02:12:39;9.73;;;5.22;;
47519;SDS011;33252;48.122;11.538;2023-02-01T02:15:09;9.52;;;5.93;;
47519;SDS011;33252;48.122;11.538;2023-02-01T02:20:22;10.88;;;5.47;;
47519;SDS011;33252;48.122;11.538;2023-02-01T02:34:20;8.80;;;5.25;;
47519;SDS011;33252;48.122;11.538;2023-02-01T02:42:12;7.82;;;4.75;;
47519;SDS011;33252;48.122;11.538;2023-02-01T02:48:20;9.10;;;5.88;;
47519;SDS011;33252;48.122;11.538;2023-02-01T02:51:14;10.15;;;5.68;;
47519;SDS011;33252;48.122;11.538;2023-02-01T02:54:18;9.30;;;5.20;;
47519;SDS011;33252;48.122;11.538;2023-02-01T02:57:08;9.52;;;4.72;;
47519;SDS011;33252;48.122;11.538;2023-02-01T02:59:57;8.65;;;5.05;;
47519;SDS011;33252;48.122;11.538;2023-02-01T03:02:44;8.60;;;4.95;;
47519;SDS011;33252;48.122;11.538;2023-02-01T03:05:39;11.55;;;5.13;;
47519;SDS011;33252;48.122;11.538;2023-02-01T03:08:11;8.77;;;4.63;;
47519;SDS011;33252;48.122;11.538;2023-02-01T03:13:55;6.65;;;4.50;;
47519;SDS011;33252;48.122;11.538;2023-02-01T03:16:29;8.57;;;4.05;;
47519;SDS011;33252;48.122;11.538;2023-02-01T03:21:52;7.05;;;3.85;;
47519;SDS011;33252;48.122;11.538;2023-02-01T03:27:01;8.13;;;4.22;;
47519;SDS011;33252;48.122;11.538;2023-02-01T03:29:43;7.28;;;4.00;;
47519;SDS011;33252;48.122;11.538;2023-02-01T03:32:17;7.30;;;4.15;;
47519;SDS011;33252;48.122;11.538;2023-02-01T03:34:43;7.13;;;4.35;;
47519;SDS011;33252;48.122;11.538;2023-02-01T03:37:11;5.95;;;4.00;;
47519;SDS011;33252;48.122;11.538;2023-02-01T03:39:53;7.15;;;4.32;;
47519;SDS011;33252;48.122;11.538;2023-02-01T03:42:38;7.43;;;3.97;;
47519;SDS011;33252;48.122;11.538;2023-02-01T03:45:13;7.07;;;4.13;;
47519;SDS011;33252;48.122;11.538;2023-02-01T03:47:49;7.03;;;5.10;;
47519;SDS011;33252;48.122;11.538;2023-02-01T03:50:21;8.05;;;4.90;;
47519;SDS011;33252;48.122;11.538;2023-02-01T03:52:54;8.00;;;4.30;;
47519;SDS011;33252;48.122;11.538;2023-02-01T03:55:36;5.97;;;3.78;;
47519;SDS011;33252;48.122;11.538;2023-02-01T04:00:38;6.25;;;4.07;;
47519;SDS011;33252;48.122;11.538;2023-02-01T04:03:05;6.90;;;4.13;;
47519;SDS011;33252;48.122;11.538;2023-02-01T04:05:32;7.15;;;3.95;;
47519;SDS011;33252;48.122;11.538;2023-02-01T04:07:58;6.97;;;3.28;;
47519;SDS011;33252;48.122;11.538;2023-02-01T04:10:24;7.20;;;3.90;;
47519;SDS011;33252;48.122;11.538;2023-02-01T04:12:50;6.57;;;3.78;;
47519;SDS011;33252;48.122;11.538;2023-02-01T04:15:15;7.32;;;5.07;;
47519;SDS011;33252;48.122;11.538;2023-02-01T04:17:41;6.25;;;3.88;;
47519;SDS011;33252;48.122;11.538;2023-02-01T04:20:07;6.25;;;3.88;;
47519;SDS011;33252;48.122;11.538;2023-02-01T04:22:34;5.25;;;3.22;;
47519;SDS011;33252;48.122;11.538;2023-02-01T04:24:59;7.57;;;5.03;;
47519;SDS011;33252;48.122;11.538;2023-02-01T04:27:25;7.03;;;4.53;;
47519;SDS011;33252;48.122;11.538;2023-02-01T04:29:51;7.32;;;3.85;;
47519;SDS011;33252;48.122;11.538;2023-02-01T04:32:17;7.53;;;4.50;;
47519;SDS011;33252;48.122;11.538;2023-02-01T04:34:44;8.25;;;4.85;;
47519;SDS011;33252;48.122;11.538;2023-02-01T04:37:10;6.72;;;4.05;;
47519;SDS011;33252;48.122;11.538;2023-02-01T04:39:36;7.10;;;3.97;;
47519;SDS011;33252;48.122;11.538;2023-02-01T04:42:02;8.30;;;4.50;;
47519;SDS011;33252;48.122;11.538;2023-02-01T04:44:28;6.82;;;3.63;;
47519;SDS011;33252;48.122;11.538;2023-02-01T04:46:53;10.68;;;4.47;;
47519;SDS011;33252;48.122;11.538;2023-02-01T04:49:19;7.85;;;4.15;;
47519;SDS011;33252;48.122;11.538;2023-02-01T04:51:46;7.55;;;4.22;;
47519;SDS011;33252;48.122;11.538;2023-02-01T04:54:12;6.72;;;3.92;;
47519;SDS011;33252;48.122;11.538;2023-02-01T04:56:38;5.95;;;3.80;;
47519;SDS011;33252;48.122;11.538;2023-02-01T04:59:04;8.25;;;4.05;;
47519;SDS011;33252;48.122;11.538;2023-02-01T05:01:30;8.63;;;5.13;;
47519;SDS011;33252;48.122;11.538;2023-02-01T05:03:56;6.80;;;3.95;;
47519;SDS011;33252;48.122;11.538;2023-02-01T05:06:22;7.63;;;5.10;;
47519;SDS011;33252;48.122;11.538;2023-02-01T05:08:48;8.60;;;5.13;;
47519;SDS011;33252;48.122;11.538;2023-02-01T05:11:14;6.68;;;4.57;;
47519;SDS011;33252;48.122;11.538;2023-02-01T05:14:01;9.93;;;5.15;;
47519;SDS011;33252;48.122;11.538;2023-02-01T05:16:27;6.20;;;4.32;;
47519;SDS011;33252;48.122;11.538;2023-02-01T05:18:52;8.77;;;4.97;;
47519;SDS011;33252;48.122;11.538;2023-02-01T05:21:19;7.97;;;4.85;;
47519;SDS011;33252;48.122;11.538;2023-02-01T05:23:44;6.45;;;4.47;;
47519;SDS011;33252;48.122;11.538;2023-02-01T05:26:29;9.13;;;4.85;;
47519;SDS011;33252;48.122;11.538;2023-02-01T05:28:54;6.53;;;3.92;;
47519;SDS011;33252;48.122;11.538;2023-02-01T05:31:20;7.50;;;4.57;;
47519;SDS011;33252;48.122;11.538;2023-02-01T05:33:47;6.93;;;4.43;;
47519;SDS011;33252;48.122;11.538;2023-02-01T05:36:12;7.47;;;4.88;;
47519;SDS011;33252;48.122;11.538;2023-02-01T05:38:38;6.93;;;4.80;;
47519;SDS011;33252;48.122;11.538;2023-02-01T05:41:04;9.25;;;4.70;;
47519;SDS011;33252;48.122;11.538;2023-02-01T05:43:30;8.68;;;4.47;;
47519;SDS011;33252;48.122;11.538;2023-02-01T05:45:55;11.40;;;6.03;;
47519;SDS011;33252;48.122;11.538;2023-02-01T05:48:21;11.15;;;4.93;;
47519;SDS011;33252;48.122;11.538;2023-02-01T05:50:47;7.95;;;4.85;;
47519;SDS011;33252;48.122;11.538;2023-02-01T05:53:12;7.72;;;4.55;;
47519;SDS011;33252;48.122;11.538;2023-02-01T05:55:38;8.02;;;4.95;;
47519;SDS011;33252;48.122;11.538;2023-02-01T05:58:04;10.88;;;5.15;;
47519;SDS011;33252;48.122;11.538;2023-02-01T06:00:30;7.03;;;4.72;;
47519;SDS011;33252;48.122;11.538;2023-02-01T06:02:56;7.38;;;5.45;;
47519;SDS011;33252;48.122;11.538;2023-02-01T06:05:22;8.02;;;4.65;;
47519;SDS011;33252;48.122;11.538;2023-02-01T06:07:48;8.75;;;4.68;;
47519;SDS011;33252;48.122;11.538;2023-02-01T06:10:15;10.32;;;5.05;;
47519;SDS011;33252;48.122;11.538;2023-02-01T06:12:41;8.18;;;4.65;;
47519;SDS011;33252;48.122;11.538;2023-02-01T06:15:07;10.07;;;5.45;;
47519;SDS011;33252;48.122;11.538;2023-02-01T06:17:33;6.60;;;4.72;;
47519;SDS011;33252;48.122;11.538;2023-02-01T06:19:59;10.68;;;5.20;;
47519;SDS011;33252;48.122;11.538;2023-02-01T06:22:24;9.27;;;4.80;;
47519;SDS011;33252;48.122;11.538;2023-02-01T06:24:50;9.13;;;4.32;;
47519;SDS011;33252;48.122;11.538;2023-02-01T06:27:16;6.60;;;4.25;;
47519;SDS011;33252;48.122;11.538;2023-02-01T06:29:41;10.70;;;4.78;;
47519;SDS011;33252;48.122;11.538;2023-02-01T06:32:07;6.72;;;4.35;;
47519;SDS011;33252;48.122;11.538;2023-02-01T06:34:33;8.27;;;4.35;;
47519;SDS011;33252;48.122;11.538;2023-02-01T06:36:59;9.75;;;4.40;;
47519;SDS011;33252;48.122;11.538;2023-02-01T06:39:25;8.13;;;4.82;;
47519;SDS011;33252;48.122;11.538;2023-02-01T06:41:52;7.35;;;4.85;;
47519;SDS011;33252;48.122;11.538;2023-02-01T06:44:18;8.98;;;5.28;;
47519;SDS011;33252;48.122;11.538;2023-02-01T06:46:44;9.50;;;4.40;;
47519;SDS011;33252;48.122;11.538;2023-02-01T06:49:09;8.55;;;4.85;;
47519;SDS011;33252;48.122;11.538;2023-02-01T06:51:35;5.80;;;4.15;;
47519;SDS011;33252;48.122;11.538;2023-02-01T06:54:01;8.00;;;4.45;;
47519;SDS011;33252;48.122;11.538;2023-02-01T06:56:27;6.82;;;3.92;;
47519;SDS011;33252;48.122;11.538;2023-02-01T06:58:53;8.18;;;4.40;;
47519;SDS011;33252;48.122;11.538;2023-02-01T07:01:19;7.40;;;4.05;;
47519;SDS011;33252;48.122;11.538;2023-02-01T07:03:48;8.20;;;4.45;;
47519;SDS011;33252;48.122;11.538;2023-02-01T07:06:18;6.68;;;4.13;;
47519;SDS011;33252;48.122;11.538;2023-02-01T07:08:44;6.60;;;3.85;;
47519;SDS011;33252;48.122;11.538;2023-02-01T07:11:11;6.43;;;3.80;;
47519;SDS011;33252;48.122;11.538;2023-02-01T07:13:38;7.05;;;4.53;;
47519;SDS011;33252;48.122;11.538;2023-02-01T07:16:05;6.88;;;4.18;;
47519;SDS011;33252;48.122;11.538;2023-02-01T07:18:34;9.50;;;3.75;;
47519;SDS011;33252;48.122;11.538;2023-02-01T07:20:59;7.57;;;4.63;;
47519;SDS011;33252;48.122;11.538;2023-02-01T07:23:25;5.28;;;3.17;;
47519;SDS011;33252;48.122;11.538;2023-02-01T07:25:55;6.00;;;3.17;;
47519;SDS011;33252;48.122;11.538;2023-02-01T07:28:23;5.40;;;3.13;;
47519;SDS011;33252;48.122;11.538;2023-02-01T07:30:48;4.97;;;3.28;;
47519;SDS011;33252;48.122;11.538;2023-02-01T07:33:17;5.22;;;2.80;;
47519;SDS011;33252;48.122;11.538;2023-02-01T07:35:47;6.63;;;3.55;;
47519;SDS011;33252;48.122;11.538;2023-02-01T07:38:14;3.40;;;2.75;;
47519;SDS011;33252;48.122;11.538;2023-02-01T07:40:40;3.90;;;2.67;;
47519;SDS011;33252;48.122;11.538;2023-02-01T07:43:06;4.80;;;2.75;;
47519;SDS011;33252;48.122;11.538;2023-02-01T07:45:33;7.85;;;3.15;;
47519;SDS011;33252;48.122;11.538;2023-02-01T07:48:00;5.43;;;2.88;;
47519;SDS011;33252;48.122;11.538;2023-02-01T07:50:26;5.22;;;2.65;;
47519;SDS011;33252;48.122;11.538;2023-02-01T07:52:51;9.07;;;2.95;;
47519;SDS011;33252;48.122;11.538;2023-02-01T07:55:18;5.68;;;2.55;;
47519;SDS011;33252;48.122;11.538;2023-02-01T07:57:45;4.57;;;2.83;;
47519;SDS011;33252;48.122;11.538;2023-02-01T08:00:11;5.30;;;2.38;;
47519;SDS011;33252;48.122;11.538;2023-02-01T08:02:59;3.42;;;2.00;;
47519;SDS011;33252;48.122;11.538;2023-02-01T08:05:25;4.25;;;2.35;;
47519;SDS011;33252;48.122;11.538;2023-02-01T08:07:51;4.50;;;2.97;;
47519;SDS011;33252;48.122;11.538;2023-02-01T08:10:17;5.35;;;2.38;;
47519;SDS011;33252;48.122;11.538;2023-02-01T08:12:44;3.65;;;2.15;;
47519;SDS011;33252;48.122;11.538;2023-02-01T08:15:16;6.97;;;2.38;;
47519;SDS011;33252;48.122;11.538;2023-02-01T08:17:48;5.45;;;2.30;;
47519;SDS011;33252;48.122;11.538;2023-02-01T08:20:15;3.13;;;2.13;;
47519;SDS011;33252;48.122;11.538;2023-02-01T08:22:42;3.22;;;2.00;;
47519;SDS011;33252;48.122;11.538;2023-02-01T08:25:08;5.00;;;2.28;;
47519;SDS011;33252;48.122;11.538;2023-02-01T08:27:34;5.32;;;1.98;;
47519;SDS011;33252;48.122;11.538;2023-02-01T08:30:00;5.25;;;2.47;;
47519;SDS011;33252;48.122;11.538;2023-02-01T08:32:26;3.92;;;2.10;;
47519;SDS011;33252;48.122;11.538;2023-02-01T08:34:52;5.10;;;2.08;;
47519;SDS011;33252;48.122;11.538;2023-02-01T08:37:18;3.03;;;1.88;;
47519;SDS011;33252;48.122;11.538;2023-02-01T08:39:44;4.97;;;2.58;;
47519;SDS011;33252;48.122;11.538;2023-02-01T08:42:10;5.03;;;2.20;;
47519;SDS011;33252;48.122;11.538;2023-02-01T08:44:54;3.20;;;2.03;;
47519;SDS011;33252;48.122;11.538;2023-02-01T08:47:20;3.60;;;1.55;;
47519;SDS011;33252;48.122;11.538;2023-02-01T08:49:46;4.18;;;2.38;;
47519;SDS011;33252;48.122;11.538;2023-02-01T08:52:12;3.03;;;2.17;;
47519;SDS011;33252;48.122;11.538;2023-02-01T08:54:38;5.15;;;2.35;;
47519;SDS011;33252;48.122;11.538;2023-02-01T08:57:05;3.22;;;2.33;;
47519;SDS011;33252;48.122;11.538;2023-02-01T08:59:31;3.90;;;2.38;;
47519;SDS011;33252;48.122;11.538;2023-02-01T09:01:57;3.80;;;2.40;;
47519;SDS011;33252;48.122;11.538;2023-02-01T09:04:23;3.63;;;2.22;;
47519;SDS011;33252;48.122;11.538;2023-02-01T09:06:48;3.83;;;2.13;;
47519;SDS011;33252;48.122;11.538;2023-02-01T09:09:14;4.65;;;2.05;;
47519;SDS011;33252;48.122;11.538;2023-02-01T09:11:40;5.55;;;2.20;;
47519;SDS011;33252;48.122;11.538;2023-02-01T09:14:05;4.70;;;2.35;;
47519;SDS011;33252;48.122;11.538;2023-02-01T09:16:31;5.43;;;2.17;;
47519;SDS011;33252;48.122;11.538;2023-02-01T09:18:57;5.38;;;2.67;;
47519;SDS011;33252;48.122;11.538;2023-02-01T09:21:22;3.80;;;2.10;;
47519;SDS011;33252;48.122;11.538;2023-02-01T09:23:50;5.15;;;3.10;;
47519;SDS011;33252;48.122;11.538;2023-02-01T09:26:16;4.57;;;2.28;;
47519;SDS011;33252;48.122;11.538;2023-02-01T09:28:42;3.50;;;1.90;;
47519;SDS011;33252;48.122;11.538;2023-02-01T09:31:08;3.85;;;2.30;;
47519;SDS011;33252;48.122;11.538;2023-02-01T09:33:33;4.75;;;2.30;;
47519;SDS011;33252;48.122;11.538;2023-02-01T09:36:01;4.53;;;2.38;;
47519;SDS011;33252;48.122;11.538;2023-02-01T09:38:28;3.83;;;2.30;;
47519;SDS011;33252;48.122;11.538;2023-02-01T09:40:55;4.80;;;2.10;;
47519;SDS011;33252;48.122;11.538;2023-02-01T09:46:30;4.03;;;2.47;;
47519;SDS011;33252;48.122;11.538;2023-02-01T09:48:59;4.05;;;2.33;;
47519;SDS011;33252;48.122;11.538;2023-02-01T09:51:34;5.07;;;2.35;;
47519;SDS011;33252;48.122;11.538;2023-02-01T09:54:13;2.95;;;2.60;;
47519;SDS011;33252;48.122;11.538;2023-02-01T09:56:44;5.60;;;2.30;;
47519;SDS011;33252;48.122;11.538;2023-02-01T10:02:39;3.78;;;2.00;;
47519;SDS011;33252;48.122;11.538;2023-02-01T10:05:01;5.07;;;2.13;;
47519;SDS011;33252;48.122;11.538;2023-02-01T10:16:13;3.65;;;2.08;;
47519;SDS011;33252;48.122;11.538;2023-02-01T10:21:31;5.00;;;2.03;;
47519;SDS011;33252;48.122;11.538;2023-02-01T10:26:53;4.88;;;2.42;;
47519;SDS011;33252;48.122;11.538;2023-02-01T10:29:40;3.25;;;2.33;;
47519;SDS011;33252;48.122;11.538;2023-02-01T10:32:19;2.80;;;2.20;;
47519;SDS011;33252;48.122;11.538;2023-02-01T10:34:57;3.67;;;2.28;;
47519;SDS011;33252;48.122;11.538;2023-02-01T10:37:29;4.57;;;2.10;;
47519;SDS011;33252;48.122;11.538;2023-02-01T10:39:59;3.13;;;1.97;;
47519;SDS011;33252;48.122;11.538;2023-02-01T10:42:37;6.15;;;2.15;;
47519;SDS011;33252;48.122;11.538;2023-02-01T10:45:04;4.22;;;2.45;;
47519;SDS011;33252;48.122;11.538;2023-02-01T10:47:31;4.03;;;2.35;;
47519;SDS011;33252;48.122;11.538;2023-02-01T10:50:16;5.93;;;2.67;;
47519;SDS011;33252;48.122;11.538;2023-02-01T10:53:11;4.53;;;2.30;;
47519;SDS011;33252;48.122;11.538;2023-02-01T10:55:48;4.00;;;2.20;;
47519;SDS011;33252;48.122;11.538;2023-02-01T10:58:17;3.25;;;2.13;;
47519;SDS011;33252;48.122;11.538;2023-02-01T11:01:06;5.22;;;2.80;;
47519;SDS011;33252;48.122;11.538;2023-02-01T11:03:36;6.13;;;2.63;;
47519;SDS011;33252;48.122;11.538;2023-02-01T11:06:38;4.60;;;2.42;;
47519;SDS011;33252;48.122;11.538;2023-02-01T11:12:19;4.65;;;2.53;;
47519;SDS011;33252;48.122;11.538;2023-02-01T11:14:30;5.95;;;2.90;;
47519;SDS011;33252;48.122;11.538;2023-02-01T11:17:03;4.78;;;2.95;;
47519;SDS011;33252;48.122;11.538;2023-02-01T11:19:38;5.22;;;2.85;;
47519;SDS011;33252;48.122;11.538;2023-02-01T11:22:08;4.60;;;3.25;;
47519;SDS011;33252;48.122;11.538;2023-02-01T11:24:37;4.63;;;2.85;;
47519;SDS011;33252;48.122;11.538;2023-02-01T11:27:04;6.25;;;2.92;;
47519;SDS011;33252;48.122;11.538;2023-02-01T11:29:38;5.80;;;2.53;;
47519;SDS011;33252;48.122;11.538;2023-02-01T11:32:09;4.60;;;3.03;;
47519;SDS011;33252;48.122;11.538;2023-02-01T11:34:38;6.40;;;2.70;;
47519;SDS011;33252;48.122;11.538;2023-02-01T11:37:22;6.43;;;3.15;;
47519;SDS011;33252;48.122;11.538;2023-02-01T11:39:56;4.90;;;2.85;;
47519;SDS011;33252;48.122;11.538;2023-02-01T11:42:24;9.82;;;3.20;;
47519;SDS011;33252;48.122;11.538;2023-02-01T11:44:51;5.93;;;2.80;;
47519;SDS011;33252;48.122;11.538;2023-02-01T11:47:59;7.60;;;2.35;;
47519;SDS011;33252;48.122;11.538;2023-02-01T11:53:30;7.50;;;2.60;;
47519;SDS011;33252;48.122;11.538;2023-02-01T12:02:31;5.95;;;2.88;;
47519;SDS011;33252;48.122;11.538;2023-02-01T12:16:12;5.68;;;3.67;;
47519;SDS011;33252;48.122;11.538;2023-02-01T12:29:28;5.72;;;3.05;;
47519;SDS011;33252;48.122;11.538;2023-02-01T12:42:35;5.82;;;3.40;;
47519;SDS011;33252;48.122;11.538;2023-02-01T12:48:08;5.45;;;2.35;;
47519;SDS011;33252;48.122;11.538;2023-02-01T12:51:01;7.25;;;3.45;;
47519;SDS011;33252;48.122;11.538;2023-02-01T12:56:26;4.40;;;2.75;;
47519;SDS011;33252;48.122;11.538;2023-02-01T12:59:44;5.83;;;2.60;;
47519;SDS011;33252;48.122;11.538;2023-02-01T13:04:55;5.97;;;2.20;;
47519;SDS011;33252;48.122;11.538;2023-02-01T13:07:45;5.45;;;2.15;;
47519;SDS011;33252;48.122;11.538;2023-02-01T13:10:29;5.93;;;2.47;;
47519;SDS011;33252;48.122;11.538;2023-02-01T13:13:09;8.00;;;2.60;;
47519;SDS011;33252;48.122;11.538;2023-02-01T13:15:49;6.40;;;2.25;;
47519;SDS011;33252;48.122;11.538;2023-02-01T13:18:55;4.20;;;2.50;;
47519;SDS011;33252;48.122;11.538;2023-02-01T13:21:46;5.05;;;3.13;;
47519;SDS011;33252;48.122;11.538;2023-02-01T13:26:57;4.82;;;2.70;;
47519;SDS011;33252;48.122;11.538;2023-02-01T13:29:24;5.30;;;2.40;;
47519;SDS011;33252;48.122;11.538;2023-02-01T13:32:00;4.55;;;2.20;;
47519;SDS011;33252;48.122;11.538;2023-02-01T13:40:18;8.73;;;3.22;;
47519;SDS011;33252;48.122;11.538;2023-02-01T13:45:55;3.67;;;2.33;;
47519;SDS011;33252;48.122;11.538;2023-02-01T13:48:40;4.85;;;3.20;;
47519;SDS011;33252;48.122;11.538;2023-02-01T13:51:12;5.63;;;2.58;;
47519;SDS011;33252;48.122;11.538;2023-02-01T13:53:44;7.88;;;2.20;;
47519;SDS011;33252;48.122;11.538;2023-02-01T13:58:41;5.57;;;2.90;;
47519;SDS011;33252;48.122;11.538;2023-02-01T14:01:50;5.32;;;2.50;;
47519;SDS011;33252;48.122;11.538;2023-02-01T14:04:02;4.57;;;2.53;;
47519;SDS011;33252;48.122;11.538;2023-02-01T14:11:53;5.22;;;2.88;;
47519;SDS011;33252;48.122;11.538;2023-02-01T14:19:52;5.63;;;2.10;;
47519;SDS011;33252;48.122;11.538;2023-02-01T14:24:50;5.15;;;2.08;;
47519;SDS011;33252;48.122;11.538;2023-02-01T14:27:24;4.28;;;3.20;;
47519;SDS011;33252;48.122;11.538;2023-02-01T14:29:58;3.67;;;2.20;;
47519;SDS011;33252;48.122;11.538;2023-02-01T14:35:27;7.20;;;2.55;;
47519;SDS011;33252;48.122;11.538;2023-02-01T14:37:53;6.43;;;2.17;;
47519;SDS011;33252;48.122;11.538;2023-02-01T14:40:25;4.07;;;2.15;;
47519;SDS011;33252;48.122;11.538;2023-02-01T14:42:53;6.82;;;2.42;;
47519;SDS011;33252;48.122;11.538;2023-02-01T14:55:45;6.78;;;2.75;;
47519;SDS011;33252;48.122;11.538;2023-02-01T14:58:39;5.97;;;2.13;;
47519;SDS011;33252;48.122;11.538;2023-02-01T15:01:25;8.25;;;2.33;;
47519;SDS011;33252;48.122;11.538;2023-02-01T15:09:02;7.40;;;2.42;;
47519;SDS011;33252;48.122;11.538;2023-02-01T15:11:29;6.35;;;2.10;;
47519;SDS011;33252;48.122;11.538;2023-02-01T15:13:55;4.78;;;1.60;;
47519;SDS011;33252;48.122;11.538;2023-02-01T15:16:23;2.35;;;1.70;;
47519;SDS011;33252;48.122;11.538;2023-02-01T15:18:50;2.80;;;1.85;;
47519;SDS011;33252;48.122;11.538;2023-02-01T15:21:31;4.63;;;2.38;;
47519;SDS011;33252;48.122;11.538;2023-02-01T15:24:41;6.30;;;2.40;;
47519;SDS011;33252;48.122;11.538;2023-02-01T15:27:03;5.38;;;1.92;;
47519;SDS011;33252;48.122;11.538;2023-02-01T15:29:30;8.93;;;2.50;;
47519;SDS011;33252;48.122;11.538;2023-02-01T15:31:58;5.00;;;1.98;;
47519;SDS011;33252;48.122;11.538;2023-02-01T15:34:43;8.18;;;1.73;;
47519;SDS011;33252;48.122;11.538;2023-02-01T15:37:13;3.50;;;2.13;;
47519;SDS011;33252;48.122;11.538;2023-02-01T15:42:34;5.88;;;2.30;;
47519;SDS011;33252;48.122;11.538;2023-02-01T15:45:21;7.13;;;2.38;;
47519;SDS011;33252;48.122;11.538;2023-02-01T15:47:51;3.63;;;2.00;;
47519;SDS011;33252;48.122;11.538;2023-02-01T15:50:19;4.90;;;2.50;;
47519;SDS011;33252;48.122;11.538;2023-02-01T15:52:49;7.32;;;2.70;;
47519;SDS011;33252;48.122;11.538;2023-02-01T15:55:20;3.42;;;1.98;;
47519;SDS011;33252;48.122;11.538;2023-02-01T15:57:49;5.03;;;2.30;;
47519;SDS011;33252;48.122;11.538;2023-02-01T16:00:32;4.55;;;2.20;;
47519;SDS011;33252;48.122;11.538;2023-02-01T16:03:20;7.93;;;2.78;;
47519;SDS011;33252;48.122;11.538;2023-02-01T16:06:03;7.57;;;2.58;;
47519;SDS011;33252;48.122;11.538;2023-02-01T16:08:51;5.47;;;2.70;;
47519;SDS011;33252;48.122;11.538;2023-02-01T16:11:26;4.25;;;1.73;;
47519;SDS011;33252;48.122;11.538;2023-02-01T16:13:55;4.55;;;2.33;;
47519;SDS011;33252;48.122;11.538;2023-02-01T16:16:25;6.55;;;1.98;;
47519;SDS011;33252;48.122;11.538;2023-02-01T16:18:52;6.47;;;1.95;;
47519;SDS011;33252;48.122;11.538;2023-02-01T16:21:17;7.55;;;2.03;;
47519;SDS011;33252;48.122;11.538;2023-02-01T16:23:43;14.23;;;4.60;;
47519;SDS011;33252;48.122;11.538;2023-02-01T16:26:12;3.95;;;2.05;;
47519;SDS011;33252;48.122;11.538;2023-02-01T16:28:38;3.92;;;2.10;;
47519;SDS011;33252;48.122;11.538;2023-02-01T16:31:05;4.82;;;1.98;;
47519;SDS011;33252;48.122;11.538;2023-02-01T16:33:34;7.25;;;2.05;;
47519;SDS011;33252;48.122;11.538;2023-02-01T16:35:59;5.25;;;1.70;;
47519;SDS011;33252;48.122;11.538;2023-02-01T16:38:28;4.15;;;1.73;;
47519;SDS011;33252;48.122;11.538;2023-02-01T16:40:54;3.92;;;1.67;;
47519;SDS011;33252;48.122;11.538;2023-02-01T16:43:23;5.72;;;1.80;;
47519;SDS011;33252;48.122;11.538;2023-02-01T16:45:50;6.25;;;2.67;;
47519;SDS011;33252;48.122;11.538;2023-02-01T16:48:22;6.63;;;1.80;;
47519;SDS011;33252;48.122;11.538;2023-02-01T16:51:00;8.55;;;2.50;;
47519;SDS011;33252;48.122;11.538;2023-02-01T16:53:29;7.68;;;2.20;;
47519;SDS011;33252;48.122;11.538;2023-02-01T16:55:55;7.35;;;2.15;;
47519;SDS011;33252;48.122;11.538;2023-02-01T16:58:22;7.25;;;2.25;;
47519;SDS011;33252;48.122;11.538;2023-02-01T17:00:48;6.60;;;1.65;;
47519;SDS011;33252;48.122;11.538;2023-02-01T17:03:16;3.47;;;1.60;;
47519;SDS011;33252;48.122;11.538;2023-02-01T17:06:00;6.10;;;2.35;;
47519;SDS011;33252;48.122;11.538;2023-02-01T17:08:30;7.15;;;2.42;;
47519;SDS011;33252;48.122;11.538;2023-02-01T17:10:57;4.93;;;2.10;;
47519;SDS011;33252;48.122;11.538;2023-02-01T17:13:23;4.18;;;1.83;;
47519;SDS011;33252;48.122;11.538;2023-02-01T17:15:51;3.53;;;1.42;;
47519;SDS011;33252;48.122;11.538;2023-02-01T17:18:19;3.92;;;1.48;;
47519;SDS011;33252;48.122;11.538;2023-02-01T17:20:46;8.50;;;2.05;;
47519;SDS011;33252;48.122;11.538;2023-02-01T17:23:12;6.97;;;1.70;;
47519;SDS011;33252;48.122;11.538;2023-02-01T17:25:39;7.85;;;2.28;;
47519;SDS011;33252;48.122;11.538;2023-02-01T17:28:06;4.95;;;2.13;;
47519;SDS011;33252;48.122;11.538;2023-02-01T17:30:32;4.38;;;2.75;;